Airfield :
LOGIN :

Register | Disclaimer

   EN    FR    IT 

 










Legend :    VFR   Marginal VFR   IFR   Intensive IFR   Very Intensive IFR
Visi :
Ceiling :
>= 8 km
>= 3000ft
5 to 8 km
1000 to 3000 ft
1500m to 5 km
500 to 1000 ft
800 to 1500m
200 to 500 ft
< 800m
< 200 ft
Symbols :   Thunderstorms  Fog  Heavy snow  Heavy precipitations  Wind > 20 kt
SIGMETs :     Misc.  Thunderstorms  Icing  Turbulence  Mountain Waves  Volcanic Ashes






- Airport Elevation : 21 ft
- IATA code : VST


ESOW - Stockholm Västerås

CURRENT METAR :
  • 120050Z AUTO 14006KT 9999 NCD 01/M00 Q1010

EXPIRED METARs :
  • 120020Z AUTO 16006KT 9999 BKN009/// 02/00 Q1010
  • 112350Z AUTO 17006KT 9999 OVC009/// 02/01 Q1010
  • 112320Z AUTO 17004KT 8000 BR SCT011/// 01/00 Q1010
  • 112250Z AUTO 17005KT 9999 FEW059/// 02/01 Q1009
  • 112220Z AUTO 16006KT 9999 FEW011/// SCT068/// BKN086/// 03/01 Q1009

Expired Forecast.



MET'MAP, your aeronautical weather chart ! - Copyright ORBIFLY December 2007 - Disclaimer

ORBIFLY MET'MAP TEAM :

Programming & Development : Alexandra Zaïnal
Concept & Development : Baudouin d'Aumeries
Co-Development & Prog : Marc-Olivier Méhu
Technical & hardware support : Manuel Goepfert

Contact : metmap@orbifly.com




SOURCES & CREDITS :

   NOAA